createdAt,value
2023-05-20T00:00:55.675Z,4.78
2023-05-20T00:03:22.999Z,5.10
2023-05-20T00:05:50.132Z,4.75
2023-05-20T00:08:19.350Z,5.30
2023-05-20T00:10:46.398Z,5.07
2023-05-20T00:13:13.514Z,5.28
2023-05-20T00:15:40.688Z,5.18
2023-05-20T00:18:08.198Z,5.60
2023-05-20T00:20:35.290Z,5.32
2023-05-20T00:23:02.381Z,4.75
2023-05-20T00:25:31.629Z,4.57
2023-05-20T00:27:58.924Z,4.93
2023-05-20T00:30:26.061Z,5.00
2023-05-20T00:32:53.125Z,5.55
2023-05-20T00:35:20.475Z,4.97
2023-05-20T00:37:47.673Z,5.22
2023-05-20T00:40:16.260Z,5.57
2023-05-20T00:42:43.962Z,5.00
2023-05-20T00:45:11.464Z,4.90
2023-05-20T00:47:39.370Z,5.90
2023-05-20T00:50:10.317Z,5.07
2023-05-20T00:52:39.721Z,6.25
2023-05-20T00:55:07.056Z,5.70
2023-05-20T00:57:34.136Z,4.70
2023-05-20T01:00:01.624Z,5.15
2023-05-20T01:02:29.345Z,4.88
2023-05-20T01:04:57.033Z,5.28
2023-05-20T01:07:25.689Z,5.10
2023-05-20T01:09:54.475Z,4.88
2023-05-20T01:12:29.807Z,4.72
2023-05-20T01:17:47.004Z,4.82
2023-05-20T01:20:15.195Z,5.32
2023-05-20T01:22:57.709Z,5.45
2023-05-20T01:25:26.519Z,5.20
2023-05-20T01:27:55.986Z,5.43
2023-05-20T01:30:28.393Z,5.15
2023-05-20T01:33:01.443Z,5.00
2023-05-20T01:35:31.074Z,4.60
2023-05-20T01:37:59.872Z,5.18
2023-05-20T01:40:28.389Z,4.82
2023-05-20T01:42:56.859Z,6.32
2023-05-20T01:45:25.543Z,5.57
2023-05-20T01:47:52.939Z,5.25
2023-05-20T01:50:20.175Z,5.28
2023-05-20T01:52:47.483Z,4.45
2023-05-20T01:55:14.613Z,5.80
2023-05-20T01:57:42.604Z,5.80
2023-05-20T02:00:11.261Z,5.60
2023-05-20T02:02:41.185Z,4.63
2023-05-20T02:05:11.056Z,4.25
2023-05-20T02:07:38.171Z,5.20
2023-05-20T02:10:05.878Z,5.20
2023-05-20T02:12:32.877Z,5.00
2023-05-20T02:14:59.897Z,4.80
2023-05-20T02:17:27.250Z,5.60
2023-05-20T02:19:54.640Z,5.50
2023-05-20T02:22:21.699Z,5.70
2023-05-20T02:24:48.765Z,5.25
2023-05-20T02:27:16.423Z,4.53
2023-05-20T02:29:44.387Z,5.15
2023-05-20T02:32:12.779Z,5.20
2023-05-20T02:34:39.880Z,5.78
2023-05-20T02:37:07.061Z,5.50
2023-05-20T02:39:34.244Z,5.25
2023-05-20T02:42:01.277Z,5.28
2023-05-20T02:44:28.474Z,4.93
2023-05-20T02:46:56.705Z,4.78
2023-05-20T02:49:24.474Z,5.05
2023-05-20T02:51:52.233Z,5.22
2023-05-20T02:54:19.492Z,4.68
2023-05-20T02:56:46.702Z,4.95
2023-05-20T02:59:13.892Z,5.20
2023-05-20T03:01:41.309Z,5.32
2023-05-20T03:04:09.480Z,4.45
2023-05-20T03:06:38.322Z,4.68
2023-05-20T03:09:06.125Z,5.10
2023-05-20T03:11:33.218Z,5.10
2023-05-20T03:14:00.367Z,4.90
2023-05-20T03:16:28.525Z,4.90
2023-05-20T03:18:55.770Z,4.60
2023-05-20T03:21:24.290Z,4.32
2023-05-20T03:23:51.429Z,4.32
2023-05-20T03:26:19.346Z,4.47
2023-05-20T03:28:46.455Z,4.40
2023-05-20T03:31:13.681Z,4.43
2023-05-20T03:33:40.849Z,4.63
2023-05-20T03:36:08.018Z,4.63
2023-05-20T03:38:35.914Z,4.43
2023-05-20T03:41:02.953Z,4.32
2023-05-20T03:43:30.005Z,4.75
2023-05-20T03:45:57.094Z,4.47
2023-05-20T03:48:24.234Z,5.10
2023-05-20T03:50:51.325Z,4.85
2023-05-20T03:53:20.243Z,4.50
2023-05-20T03:55:47.301Z,4.00
2023-05-20T03:58:15.731Z,4.40
2023-05-20T04:00:43.085Z,4.28
2023-05-20T04:03:10.776Z,4.57
2023-05-20T04:05:38.010Z,3.97
2023-05-20T04:08:13.960Z,4.43
2023-05-20T04:10:42.987Z,4.60
2023-05-20T04:13:11.914Z,4.03
2023-05-20T04:15:39.180Z,4.45
2023-05-20T04:18:06.577Z,3.90
2023-05-20T04:20:34.054Z,4.03
2023-05-20T04:23:01.278Z,4.00
2023-05-20T04:25:28.394Z,4.00
2023-05-20T04:27:57.982Z,3.80
2023-05-20T04:30:25.258Z,3.53
2023-05-20T04:32:52.476Z,3.88
2023-05-20T04:35:20.227Z,3.90
2023-05-20T04:37:49.619Z,4.30
2023-05-20T04:40:17.879Z,4.00
2023-05-20T04:42:45.621Z,3.38
2023-05-20T04:45:13.833Z,3.42
2023-05-20T04:47:42.240Z,3.30
2023-05-20T04:50:11.142Z,2.80
2023-05-20T04:52:46.289Z,2.55
2023-05-20T04:55:14.139Z,2.53
2023-05-20T04:57:42.499Z,3.80
2023-05-20T05:00:12.641Z,2.80
2023-05-20T05:02:40.858Z,2.50
2023-05-20T05:05:08.870Z,2.50
2023-05-20T05:07:36.498Z,2.28
2023-05-20T05:10:03.865Z,2.50
2023-05-20T05:12:32.439Z,2.35
2023-05-20T05:14:59.841Z,1.80
2023-05-20T05:17:29.133Z,2.30
2023-05-20T05:19:57.795Z,2.05
2023-05-20T05:22:26.532Z,1.70
2023-05-20T05:24:55.926Z,1.70
2023-05-20T05:27:23.360Z,1.85
2023-05-20T05:29:50.883Z,1.50
2023-05-20T05:32:19.180Z,1.98
2023-05-20T05:34:46.836Z,2.20
2023-05-20T05:37:13.912Z,2.15
2023-05-20T05:39:42.076Z,1.98
2023-05-20T05:42:09.206Z,1.50
2023-05-20T05:44:36.513Z,2.17
2023-05-20T05:47:07.031Z,2.70
2023-05-20T05:49:35.030Z,1.50
2023-05-20T05:52:02.997Z,1.58
2023-05-20T05:54:30.091Z,1.90
2023-05-20T05:56:57.590Z,1.55
2023-05-20T05:59:26.460Z,1.90
2023-05-20T06:01:53.601Z,2.92
2023-05-20T06:04:21.009Z,2.53
2023-05-20T06:06:49.475Z,3.72
2023-05-20T06:09:16.905Z,3.65
2023-05-20T06:11:44.591Z,2.10
2023-05-20T06:14:11.612Z,2.95
2023-05-20T06:16:39.430Z,2.55
2023-05-20T06:19:09.627Z,6.57
2023-05-20T06:21:37.122Z,5.03
2023-05-20T06:24:05.121Z,4.80
2023-05-20T06:26:33.629Z,4.20
2023-05-20T06:29:00.923Z,2.95
2023-05-20T06:31:28.223Z,6.47
2023-05-20T06:33:55.503Z,6.25
2023-05-20T06:36:22.654Z,5.82
2023-05-20T06:38:49.738Z,3.20
2023-05-20T06:41:17.432Z,3.38
2023-05-20T06:43:44.913Z,2.13
2023-05-20T06:46:38.169Z,2.95
2023-05-20T06:49:07.507Z,3.30
2023-05-20T06:51:35.248Z,2.53
2023-05-20T06:54:03.260Z,3.92
2023-05-20T06:56:31.094Z,3.03
2023-05-20T06:58:59.300Z,3.70
2023-05-20T07:01:27.130Z,3.40
2023-05-20T07:03:56.545Z,3.25
2023-05-20T07:06:24.663Z,3.03
2023-05-20T07:08:51.751Z,3.45
2023-05-20T07:11:19.349Z,3.45
2023-05-20T07:13:46.381Z,3.67
2023-05-20T07:16:13.507Z,3.20
2023-05-20T07:18:44.969Z,2.80
2023-05-20T07:21:12.063Z,3.00
2023-05-20T07:23:57.604Z,3.40
2023-05-20T07:26:24.704Z,3.38
2023-05-20T07:28:52.216Z,3.50
2023-05-20T07:31:19.704Z,3.72
2023-05-20T07:33:46.895Z,4.00
2023-05-20T07:36:13.917Z,8.50
2023-05-20T07:38:56.502Z,8.02
2023-05-20T07:41:31.184Z,4.40
2023-05-20T07:43:58.358Z,4.45
2023-05-20T07:46:25.723Z,4.30
2023-05-20T07:48:53.167Z,4.53
2023-05-20T07:51:23.123Z,3.63
2023-05-20T07:53:50.573Z,4.28
2023-05-20T07:56:18.460Z,4.93
2023-05-20T07:58:56.202Z,4.95
2023-05-20T08:01:26.341Z,4.38
2023-05-20T08:03:54.482Z,4.43
2023-05-20T08:06:28.722Z,5.13
2023-05-20T08:08:57.292Z,4.60
2023-05-20T08:11:29.934Z,4.43
2023-05-20T08:13:57.774Z,4.78
2023-05-20T08:16:27.505Z,4.97
2023-05-20T08:18:55.248Z,6.88
2023-05-20T08:21:22.418Z,5.03
2023-05-20T08:23:49.606Z,5.00
2023-05-20T08:26:17.516Z,5.10
2023-05-20T08:28:44.645Z,5.80
2023-05-20T08:31:12.229Z,5.25
2023-05-20T08:33:39.316Z,4.80
2023-05-20T08:36:08.502Z,4.72
2023-05-20T08:38:36.770Z,4.70
2023-05-20T08:41:04.164Z,4.70
2023-05-20T08:43:32.836Z,4.65
2023-05-20T08:46:03.698Z,4.30
2023-05-20T08:48:34.068Z,4.25
2023-05-20T08:51:03.819Z,3.85
2023-05-20T08:53:31.126Z,4.05
2023-05-20T08:56:03.495Z,3.65
2023-05-20T08:58:31.842Z,4.53
2023-05-20T09:00:59.392Z,3.45
2023-05-20T09:03:26.874Z,4.80
2023-05-20T09:05:54.669Z,4.85
2023-05-20T09:08:28.538Z,5.25
2023-05-20T09:10:56.127Z,4.55
2023-05-20T09:13:24.305Z,5.40
2023-05-20T09:15:51.457Z,5.38
2023-05-20T09:18:18.816Z,4.85
2023-05-20T09:20:48.200Z,4.30
2023-05-20T09:23:15.229Z,5.88
2023-05-20T09:25:42.296Z,6.03
2023-05-20T09:28:09.447Z,6.72
2023-05-20T09:30:36.529Z,5.75
2023-05-20T09:33:05.560Z,5.72
2023-05-20T09:35:37.709Z,6.38
2023-05-20T09:38:07.793Z,5.60
2023-05-20T09:40:37.893Z,6.03
2023-05-20T09:43:11.652Z,6.03
2023-05-20T10:17:22.942Z,4.70
2023-05-20T10:19:50.824Z,5.53
2023-05-20T10:22:29.200Z,5.38
2023-05-20T10:25:00.926Z,4.70
2023-05-20T10:27:28.002Z,4.57
2023-05-20T10:29:58.263Z,4.95
2023-05-20T10:32:34.394Z,5.40
2023-05-20T10:35:01.835Z,4.45
2023-05-20T10:37:32.432Z,4.63
2023-05-20T10:40:25.680Z,4.63
2023-05-20T10:42:52.849Z,5.10
2023-05-20T10:45:30.220Z,5.47
2023-05-20T10:47:59.064Z,5.43
2023-05-20T10:50:34.884Z,5.78
2023-05-20T10:53:09.467Z,5.63
2023-05-20T10:55:41.712Z,5.28
2023-05-20T10:58:10.472Z,6.20
2023-05-20T11:00:38.222Z,6.07
2023-05-20T11:03:07.067Z,6.45
2023-05-20T11:05:34.783Z,6.15
2023-05-20T11:08:07.995Z,7.18
2023-05-20T11:13:05.598Z,5.80
2023-05-20T11:15:33.658Z,5.70
2023-05-20T11:18:04.681Z,6.57
2023-05-20T11:20:35.685Z,6.88
2023-05-20T11:23:06.903Z,6.10
2023-05-20T11:25:34.009Z,6.22
2023-05-20T11:28:01.120Z,6.25
2023-05-20T11:30:28.261Z,6.03
2023-05-20T11:33:02.389Z,6.38
2023-05-20T11:35:32.566Z,6.25
2023-05-20T11:38:03.616Z,5.22
2023-05-20T11:40:39.266Z,5.93
2023-05-20T11:43:14.988Z,6.10
2023-05-20T11:45:43.591Z,6.05
2023-05-20T11:48:12.621Z,6.05
2023-05-20T11:50:41.174Z,5.53
2023-05-20T11:53:10.677Z,6.10
2023-05-20T11:55:53.108Z,6.18
2023-05-20T11:58:24.907Z,5.70
2023-05-20T12:00:57.102Z,5.47
2023-05-20T12:03:29.365Z,6.28
2023-05-20T12:05:56.739Z,5.63
2023-05-20T12:08:23.859Z,6.50
2023-05-20T12:10:51.016Z,5.60
2023-05-20T12:13:19.566Z,5.78
2023-05-20T12:15:46.828Z,5.72
2023-05-20T12:18:14.014Z,5.30
2023-05-20T12:20:43.014Z,5.82
2023-05-20T12:23:10.238Z,5.22
2023-05-20T12:25:37.278Z,5.90
2023-05-20T12:28:04.534Z,5.15
2023-05-20T12:30:31.716Z,5.88
2023-05-20T12:32:58.890Z,5.30
2023-05-20T12:35:43.022Z,5.32
2023-05-20T12:38:13.073Z,5.30
2023-05-20T12:40:40.171Z,5.35
2023-05-20T12:43:07.310Z,5.20
2023-05-20T12:45:36.155Z,5.40
2023-05-20T12:48:03.370Z,4.82
2023-05-20T12:50:30.510Z,5.45
2023-05-20T12:52:57.559Z,5.18
2023-05-20T12:55:24.681Z,5.55
2023-05-20T12:57:51.934Z,5.20
2023-05-20T13:00:19.081Z,5.45
2023-05-20T13:02:46.316Z,5.38
2023-05-20T13:05:13.884Z,5.18
2023-05-20T13:07:41.096Z,4.85
2023-05-20T13:10:10.625Z,5.40
2023-05-20T13:12:38.416Z,5.07
2023-05-20T13:15:06.297Z,5.18
2023-05-20T13:17:33.560Z,5.10
2023-05-20T13:20:00.936Z,4.80
2023-05-20T13:22:28.342Z,4.70
2023-05-20T13:24:55.509Z,5.00
2023-05-20T13:27:22.602Z,5.30
2023-05-20T13:29:49.712Z,4.75
2023-05-20T13:32:16.814Z,4.95
2023-05-20T13:34:43.896Z,5.25
2023-05-20T13:37:10.952Z,5.35
2023-05-20T13:39:37.977Z,4.40
2023-05-20T13:42:05.138Z,5.72
2023-05-20T13:44:32.832Z,4.60
2023-05-20T13:47:00.441Z,5.80
2023-05-20T13:49:27.743Z,4.85
2023-05-20T13:51:54.791Z,4.60
2023-05-20T13:54:22.166Z,5.15
2023-05-20T13:56:49.442Z,5.43
2023-05-20T13:59:16.696Z,5.22
2023-05-20T14:01:45.570Z,5.22
2023-05-20T14:04:13.405Z,4.85
2023-05-20T14:06:40.913Z,5.25
2023-05-20T14:09:11.489Z,4.57
2023-05-20T14:11:38.591Z,5.35
2023-05-20T14:14:05.871Z,5.25
2023-05-20T14:16:33.375Z,5.35
2023-05-20T14:19:00.531Z,5.18
2023-05-20T14:21:27.658Z,5.22
2023-05-20T14:23:54.686Z,5.25
2023-05-20T14:26:21.930Z,6.28
2023-05-20T14:28:49.285Z,5.05
2023-05-20T14:31:16.653Z,5.15
2023-05-20T14:33:43.775Z,5.10
2023-05-20T14:36:11.611Z,5.50
2023-05-20T14:38:38.792Z,6.75
2023-05-20T14:41:05.822Z,5.95
2023-05-20T14:43:32.984Z,5.00
2023-05-20T14:46:00.921Z,4.85
2023-05-20T14:48:27.981Z,4.97
2023-05-20T14:50:55.183Z,5.10
2023-05-20T14:53:23.213Z,6.25
2023-05-20T14:55:50.369Z,5.38
2023-05-20T14:58:17.414Z,5.40
2023-05-20T15:00:44.575Z,5.03
2023-05-20T15:03:11.836Z,5.00
2023-05-20T15:05:39.061Z,5.15
2023-05-20T15:08:06.529Z,4.93
2023-05-20T15:10:33.764Z,5.40
2023-05-20T15:13:01.127Z,4.85
2023-05-20T15:15:28.296Z,4.70
2023-05-20T15:17:55.685Z,4.97
2023-05-20T15:20:22.894Z,5.07
2023-05-20T15:22:49.961Z,5.97
2023-05-20T15:25:17.170Z,4.97
2023-05-20T15:27:44.363Z,5.50
2023-05-20T15:30:12.189Z,4.72
2023-05-20T15:32:40.147Z,5.32
2023-05-20T15:35:07.579Z,5.00
2023-05-20T15:37:34.631Z,5.43
2023-05-20T15:40:01.671Z,5.78
2023-05-20T15:42:28.895Z,5.03
2023-05-20T15:44:56.169Z,4.90
2023-05-20T15:47:23.479Z,5.32
2023-05-20T15:49:50.898Z,4.85
2023-05-20T15:52:17.957Z,4.90
2023-05-20T15:54:45.006Z,4.30
2023-05-20T15:57:12.073Z,4.95
2023-05-20T15:59:39.140Z,5.07
2023-05-20T16:02:06.789Z,5.25
2023-05-20T16:04:33.964Z,4.80
2023-05-20T16:07:01.078Z,4.95
2023-05-20T16:09:28.108Z,4.32
2023-05-20T16:11:56.245Z,4.70
2023-05-20T16:14:23.299Z,4.70
2023-05-20T16:16:50.513Z,4.40
2023-05-20T16:19:17.753Z,4.32
2023-05-20T16:21:45.181Z,5.22
2023-05-20T16:24:12.644Z,4.80
2023-05-20T16:26:39.812Z,4.57
2023-05-20T16:29:07.289Z,4.85
2023-05-20T16:31:34.480Z,4.53
2023-05-20T16:34:03.919Z,4.47
2023-05-20T16:36:31.201Z,3.92
2023-05-20T16:38:58.211Z,4.57
2023-05-20T16:41:25.275Z,4.65
2023-05-20T16:43:52.318Z,4.20
2023-05-20T16:46:19.491Z,4.55
2023-05-20T16:48:46.635Z,4.07
2023-05-20T16:51:13.708Z,4.97
2023-05-20T16:53:40.748Z,4.75
2023-05-20T16:56:08.429Z,4.50
2023-05-20T16:58:35.797Z,3.97
2023-05-20T17:01:02.997Z,4.22
2023-05-20T17:03:30.174Z,4.40
2023-05-20T17:05:57.325Z,4.07
2023-05-20T17:08:24.366Z,5.13
2023-05-20T17:10:54.212Z,4.35
2023-05-20T17:13:21.657Z,5.05
2023-05-20T17:15:48.769Z,4.50
2023-05-20T17:18:16.890Z,4.07
2023-05-20T17:20:43.966Z,4.38
2023-05-20T17:23:11.352Z,4.05
2023-05-20T17:25:38.402Z,4.30
2023-05-20T17:28:05.611Z,4.35
2023-05-20T17:30:33.122Z,5.05
2023-05-20T17:33:00.765Z,4.65
2023-05-20T17:35:28.311Z,4.63
2023-05-20T17:37:55.396Z,4.15
2023-05-20T17:40:22.682Z,4.05
2023-05-20T17:42:49.904Z,3.95
2023-05-20T17:45:17.114Z,4.65
2023-05-20T17:47:44.255Z,5.20
2023-05-20T17:50:11.631Z,4.50
2023-05-20T17:52:38.735Z,4.78
2023-05-20T17:55:06.904Z,3.88
2023-05-20T17:57:34.358Z,4.10
2023-05-20T18:00:02.432Z,4.10
2023-05-20T18:02:32.162Z,4.78
2023-05-20T18:04:59.390Z,4.15
2023-05-20T18:07:27.122Z,4.18
2023-05-20T18:09:54.390Z,3.60
2023-05-20T18:12:21.420Z,3.92
2023-05-20T18:14:48.503Z,4.15
2023-05-20T18:17:15.620Z,4.45
2023-05-20T18:19:42.641Z,4.13
2023-05-20T18:22:09.892Z,4.72
2023-05-20T18:24:36.932Z,3.97
2023-05-20T18:27:04.098Z,4.07
2023-05-20T18:29:31.254Z,4.38
2023-05-20T18:31:58.329Z,4.15
2023-05-20T18:34:25.794Z,3.80
2023-05-20T18:36:53.009Z,4.60
2023-05-20T18:39:21.110Z,4.35
2023-05-20T18:41:48.845Z,4.65
2023-05-20T18:44:17.058Z,4.57
2023-05-20T18:46:44.341Z,4.18
2023-05-20T18:49:11.623Z,4.32
2023-05-20T18:51:39.747Z,4.28
2023-05-20T18:54:07.143Z,4.95
2023-05-20T18:56:34.724Z,4.72
2023-05-20T18:59:02.049Z,4.00
2023-05-20T19:01:29.303Z,4.07
2023-05-20T19:03:56.489Z,3.92
2023-05-20T19:06:23.768Z,4.28
2023-05-20T19:08:51.054Z,4.60
2023-05-20T19:11:18.275Z,3.90
2023-05-20T19:13:45.353Z,4.47
2023-05-20T19:16:12.463Z,4.30
2023-05-20T19:18:39.672Z,4.35
2023-05-20T19:21:06.836Z,4.18
2023-05-20T19:23:33.883Z,3.70
2023-05-20T19:26:01.036Z,4.28
2023-05-20T19:28:28.147Z,4.78
2023-05-20T19:30:55.369Z,4.32
2023-05-20T19:33:22.518Z,3.80
2023-05-20T19:35:49.688Z,4.45
2023-05-20T19:38:17.015Z,4.35
2023-05-20T19:40:45.137Z,4.03
2023-05-20T19:43:12.239Z,4.10
2023-05-20T19:45:39.275Z,4.63
2023-05-20T19:48:06.989Z,4.18
2023-05-20T19:50:34.537Z,4.05
2023-05-20T19:53:06.286Z,4.47
2023-05-20T19:55:35.210Z,4.55
2023-05-20T19:58:02.727Z,4.47
2023-05-20T20:00:29.870Z,4.40
2023-05-20T20:02:57.821Z,4.70
2023-05-20T20:05:26.092Z,3.83
2023-05-20T20:07:53.354Z,4.57
2023-05-20T20:10:20.478Z,4.70
2023-05-20T20:12:47.732Z,4.43
2023-05-20T20:15:14.823Z,4.47
2023-05-20T20:17:46.098Z,4.10
2023-05-20T20:20:14.419Z,4.50
2023-05-20T20:22:42.315Z,5.00
2023-05-20T20:25:09.652Z,4.20
2023-05-20T20:27:36.699Z,4.75
2023-05-20T20:30:04.261Z,4.63
2023-05-20T20:32:31.888Z,4.35
2023-05-20T20:34:59.762Z,4.95
2023-05-20T20:37:27.032Z,5.15
2023-05-20T20:39:56.679Z,4.47
2023-05-20T20:42:23.864Z,4.40
2023-05-20T20:44:52.662Z,3.90
2023-05-20T20:47:19.840Z,4.70
2023-05-20T20:49:46.881Z,4.80
2023-05-20T20:52:13.981Z,4.25
2023-05-20T20:54:43.377Z,4.70
2023-05-20T20:57:11.665Z,4.18
2023-05-20T20:59:39.894Z,4.80
2023-05-20T21:02:07.086Z,4.20
2023-05-20T21:04:34.300Z,4.63
2023-05-20T21:07:02.130Z,4.85
2023-05-20T21:09:29.573Z,3.88
2023-05-20T21:11:57.348Z,4.10
2023-05-20T21:14:25.439Z,4.15
2023-05-20T21:16:52.788Z,4.55
2023-05-20T21:19:20.018Z,4.40
2023-05-20T21:21:47.096Z,4.90
2023-05-20T21:24:14.216Z,4.22
2023-05-20T21:26:41.238Z,4.60
2023-05-20T21:29:10.079Z,4.28
2023-05-20T21:31:37.185Z,4.80
2023-05-20T21:34:04.390Z,3.75
2023-05-20T21:36:32.441Z,4.15
2023-05-20T21:38:59.482Z,3.88
2023-05-20T21:41:27.375Z,3.70
2023-05-20T21:43:54.449Z,4.38
2023-05-20T21:46:21.613Z,4.03
2023-05-20T21:48:48.680Z,4.20
2023-05-20T21:51:15.866Z,4.47
2023-05-20T21:53:43.023Z,4.63
2023-05-20T21:56:10.155Z,4.30
2023-05-20T21:58:41.315Z,4.05
2023-05-20T22:01:10.067Z,4.38
2023-05-20T22:03:38.463Z,3.60
2023-05-20T22:06:06.349Z,4.32
2023-05-20T22:08:36.361Z,3.85
2023-05-20T22:11:07.764Z,4.00
2023-05-20T22:13:35.845Z,3.47
2023-05-20T22:16:05.046Z,3.75
2023-05-20T22:18:32.510Z,3.55
2023-05-20T22:21:00.312Z,4.10
2023-05-20T22:23:28.730Z,3.17
2023-05-20T22:25:56.007Z,3.80
2023-05-20T22:28:23.954Z,4.13
2023-05-20T22:30:51.719Z,3.22
2023-05-20T22:33:18.902Z,3.28
2023-05-20T22:35:46.161Z,3.60
2023-05-20T22:38:13.188Z,3.58
2023-05-20T22:40:40.295Z,4.03
2023-05-20T22:43:07.388Z,3.50
2023-05-20T22:45:34.798Z,3.45
2023-05-20T22:48:02.257Z,3.38
2023-05-20T22:50:29.417Z,3.53
2023-05-20T22:52:56.569Z,3.47
2023-05-20T22:55:24.085Z,3.35
2023-05-20T22:57:51.515Z,3.65
2023-05-20T23:00:18.930Z,3.58
2023-05-20T23:02:50.158Z,3.28
2023-05-20T23:05:17.469Z,3.00
2023-05-20T23:07:45.116Z,3.53
2023-05-20T23:10:12.204Z,3.40
2023-05-20T23:12:39.309Z,3.28
2023-05-20T23:15:06.970Z,3.25
2023-05-20T23:17:34.274Z,3.60
2023-05-20T23:20:01.492Z,3.10
2023-05-20T23:22:28.521Z,3.78
2023-05-20T23:24:55.536Z,2.95
2023-05-20T23:27:22.675Z,3.08
2023-05-20T23:29:49.723Z,3.33
2023-05-20T23:32:16.829Z,3.63
2023-05-20T23:34:43.838Z,3.85
2023-05-20T23:37:10.966Z,3.60
2023-05-20T23:39:38.194Z,3.25
2023-05-20T23:42:05.620Z,3.67
2023-05-20T23:44:32.741Z,3.65
2023-05-20T23:47:00.983Z,3.80
2023-05-20T23:49:29.829Z,3.42
2023-05-20T23:51:56.929Z,3.60
2023-05-20T23:54:23.944Z,4.38
2023-05-20T23:56:51.099Z,4.35
2023-05-20T23:59:18.173Z,4.40
